Time;durP1;ratioP1;P1;durP2;ratioP2;P2;SDS_P1;SDS_P2;PMS_P1;PMS_P2;Temp;Humidity;BMP_temperature;BMP_pressure;BME280_temperature;BME280_humidity;BME280_pressure;Samples;Min_cycle;Max_cycle;Signal;HPM_P1;HPM_P2
2022/10/23 00:01:09;;;;;;;7.45;3.95;;;;;;;;;;5087715;28;20020;-85
2022/10/23 00:03:35;;;;;;;5.43;3.22;;;;;;;;;;5087450;28;20096;-86
2022/10/23 00:06:05;;;;;;;5.20;3.78;;;;;;;;;;5091587;28;20376;-86
2022/10/23 00:08:31;;;;;;;14.48;4.00;;;;;;;;;;5090640;28;20036;-83
2022/10/23 00:10:56;;;;;;;4.55;3.03;;;;;;;;;;5091222;28;20032;-84
2022/10/23 00:13:21;;;;;;;6.18;3.42;;;;;;;;;;5091725;28;20536;-85
2022/10/23 00:15:47;;;;;;;6.78;3.67;;;;;;;;;;5090547;28;20031;-86
2022/10/23 00:18:12;;;;;;;6.70;3.67;;;;;;;;;;5087311;28;20028;-84
2022/10/23 00:20:38;;;;;;;4.93;2.72;;;;;;;;;;5091846;28;20032;-83
2022/10/23 00:23:03;;;;;;;10.30;3.35;;;;;;;;;;5092055;28;20070;-85
2022/10/23 00:25:28;;;;;;;4.85;2.55;;;;;;;;;;5089305;28;20103;-85
2022/10/23 00:27:54;;;;;;;5.07;3.38;;;;;;;;;;5090546;28;20104;-84
2022/10/23 00:30:20;;;;;;;3.85;2.75;;;;;;;;;;5090470;28;20487;-86
2022/10/23 00:32:45;;;;;;;4.47;3.30;;;;;;;;;;5092116;28;20469;-84
2022/10/23 00:35:10;;;;;;;3.50;2.08;;;;;;;;;;5091699;28;20127;-84
2022/10/23 00:37:36;;;;;;;4.50;2.67;;;;;;;;;;5087846;28;20020;-86
2022/10/23 00:40:02;;;;;;;4.75;2.60;;;;;;;;;;5090964;28;20032;-87
2022/10/23 00:42:27;;;;;;;3.42;2.05;;;;;;;;;;5092395;28;20026;-87
2022/10/23 00:44:53;;;;;;;3.13;2.58;;;;;;;;;;5090522;28;20024;-89
2022/10/23 00:47:18;;;;;;;4.32;2.58;;;;;;;;;;5091007;28;20372;-86
2022/10/23 00:49:43;;;;;;;4.03;2.13;;;;;;;;;;5090872;28;20024;-89
2022/10/23 00:52:11;;;;;;;4.55;2.60;;;;;;;;;;5090378;28;20024;-88
2022/10/23 00:54:39;;;;;;;6.22;3.08;;;;;;;;;;5090847;28;20512;-87
2022/10/23 00:57:08;;;;;;;4.00;2.50;;;;;;;;;;5090450;28;20052;-87
2022/10/23 00:59:34;;;;;;;1.83;1.65;;;;;;;;;;5091889;28;20028;-88
2022/10/23 01:02:00;;;;;;;3.75;2.58;;;;;;;;;;5089289;28;20106;-90
2022/10/23 01:04:26;;;;;;;3.45;2.25;;;;;;;;;;5090675;28;20052;-87
2022/10/23 01:07:04;;;;;;;2.95;2.15;;;;;;;;;;5091734;28;20030;-89
2022/10/23 01:09:35;;;;;;;2.25;1.75;;;;;;;;;;5089784;28;20028;-87
2022/10/23 01:12:23;;;;;;;5.25;1.85;;;;;;;;;;5088227;28;20356;-88
2022/10/23 01:15:07;;;;;;;2.30;1.60;;;;;;;;;;5089392;28;20043;-86
2022/10/23 01:17:44;;;;;;;1.30;0.75;;;;;;;;;;5089625;28;20048;-86
2022/10/23 01:20:29;;;;;;;1.98;1.00;;;;;;;;;;5090433;28;20028;-88
2022/10/23 01:23:03;;;;;;;0.85;0.63;;;;;;;;;;5086523;28;20135;-86
2022/10/23 01:25:47;;;;;;;3.53;1.80;;;;;;;;;;5090819;28;20472;-86
2022/10/23 01:28:27;;;;;;;4.35;2.53;;;;;;;;;;5090336;28;20524;-86
2022/10/23 01:30:52;;;;;;;;;;;;;;;;;;5090472;28;20027;-87
2022/10/23 01:33:47;;;;;;;7.43;3.35;;;;;;;;;;5090134;28;20403;-88
2022/10/23 01:36:15;;;;;;;6.18;3.70;;;;;;;;;;5084828;28;20483;-88
2022/10/23 01:38:43;;;;;;;4.90;3.08;;;;;;;;;;5091346;28;20084;-89
2022/10/23 01:41:23;;;;;;;4.95;3.15;;;;;;;;;;5088196;28;20032;-88
2022/10/23 01:44:02;;;;;;;7.50;4.70;;;;;;;;;;5090360;28;20028;-88
2022/10/23 01:46:29;;;;;;;9.23;4.68;;;;;;;;;;5088619;28;20376;-87
2022/10/23 01:48:57;;;;;;;6.20;3.78;;;;;;;;;;5089533;28;20016;-89
2022/10/23 01:51:26;;;;;;;7.28;4.38;;;;;;;;;;5091328;28;20079;-88
2022/10/23 01:53:56;;;;;;;5.85;4.55;;;;;;;;;;5090275;28;20073;-87
2022/10/23 01:56:26;;;;;;;5.68;3.58;;;;;;;;;;5088970;28;20024;-87
2022/10/23 01:58:54;;;;;;;4.00;2.95;;;;;;;;;;5090081;28;20022;-89
2022/10/23 02:01:22;;;;;;;6.22;4.20;;;;;;;;;;5094807;28;20036;-89
2022/10/23 02:03:49;;;;;;;6.15;3.88;;;;;;;;;;5093756;28;20069;-89
2022/10/23 02:06:15;;;;;;;5.32;3.28;;;;;;;;;;5094354;28;20107;-88
2022/10/23 02:08:41;;;;;;;7.28;3.38;;;;;;;;;;5095332;28;20059;-87
2022/10/23 02:11:10;;;;;;;5.43;3.08;;;;;;;;;;5093802;28;20093;-87
2022/10/23 02:13:44;;;;;;;5.07;3.53;;;;;;;;;;5090874;28;20081;-88
2022/10/23 02:16:22;;;;;;;4.80;3.60;;;;;;;;;;5093329;28;20020;-86
2022/10/23 02:18:55;;;;;;;5.50;2.78;;;;;;;;;;5092869;28;20373;-86
2022/10/23 02:21:27;;;;;;;7.88;3.15;;;;;;;;;;5093373;28;20055;-86
2022/10/23 02:24:01;;;;;;;4.68;3.63;;;;;;;;;;5094569;28;20024;-85
2022/10/23 02:26:37;;;;;;;6.35;3.97;;;;;;;;;;5093428;28;20096;-86
2022/10/23 02:29:14;;;;;;;6.53;3.40;;;;;;;;;;5094185;28;20076;-85
2022/10/23 02:31:40;;;;;;;5.60;3.08;;;;;;;;;;5092969;28;20036;-85
2022/10/23 02:34:05;;;;;;;4.68;2.85;;;;;;;;;;5090458;28;20026;-87
2022/10/23 02:36:31;;;;;;;4.20;2.63;;;;;;;;;;5094543;28;20024;-87
2022/10/23 02:38:56;;;;;;;5.53;3.33;;;;;;;;;;5094189;28;20032;-90
2022/10/23 02:41:28;;;;;;;7.15;3.35;;;;;;;;;;5094508;28;20035;-87
2022/10/23 02:44:09;;;;;;;5.82;2.95;;;;;;;;;;5093110;28;20353;-88
2022/10/23 02:46:37;;;;;;;4.13;3.05;;;;;;;;;;5093320;28;20415;-87
2022/10/23 02:49:19;;;;;;;3.45;2.70;;;;;;;;;;5092709;28;20020;-89
2022/10/23 02:51:50;;;;;;;4.93;3.22;;;;;;;;;;5093750;28;20035;-90
2022/10/23 02:54:28;;;;;;;3.80;2.65;;;;;;;;;;5094356;28;20064;-87
2022/10/23 02:57:15;;;;;;;4.82;2.85;;;;;;;;;;5092680;28;20035;-88
2022/10/23 02:59:56;;;;;;;5.90;2.97;;;;;;;;;;5092551;28;20034;-88
2022/10/23 03:02:25;;;;;;;4.47;3.20;;;;;;;;;;5090850;28;20471;-87
2022/10/23 03:04:52;;;;;;;6.35;3.22;;;;;;;;;;5092701;28;20024;-89
2022/10/23 03:07:18;;;;;;;2.55;1.83;;;;;;;;;;5092296;28;20039;-87
2022/10/23 03:09:44;;;;;;;4.53;2.63;;;;;;;;;;5092851;28;20392;-87
2022/10/23 03:12:09;;;;;;;3.38;2.10;;;;;;;;;;5091753;28;20028;-87
2022/10/23 03:14:35;;;;;;;3.15;2.20;;;;;;;;;;5092149;28;20032;-86
2022/10/23 03:17:00;;;;;;;2.90;2.17;;;;;;;;;;5093500;28;20040;-89
2022/10/23 03:19:26;;;;;;;4.78;2.33;;;;;;;;;;5092754;28;20130;-86
2022/10/23 03:21:51;;;;;;;2.92;2.13;;;;;;;;;;5093018;28;20063;-85
2022/10/23 03:24:16;;;;;;;6.20;2.15;;;;;;;;;;5093457;28;20206;-86
2022/10/23 03:26:42;;;;;;;3.35;1.90;;;;;;;;;;5092986;28;20024;-86
2022/10/23 03:29:07;;;;;;;4.97;1.77;;;;;;;;;;5092846;28;20023;-88
2022/10/23 03:31:33;;;;;;;2.90;1.40;;;;;;;;;;5090744;28;20430;-86
2022/10/23 03:33:58;;;;;;;3.40;2.08;;;;;;;;;;5089753;28;20472;-87
2022/10/23 03:36:24;;;;;;;4.97;2.03;;;;;;;;;;5093553;28;20066;-86
2022/10/23 03:38:49;;;;;;;2.58;1.63;;;;;;;;;;5092986;28;20436;-85
2022/10/23 03:41:14;;;;;;;3.03;2.13;;;;;;;;;;5093085;28;20028;-85
2022/10/23 03:43:40;;;;;;;3.28;1.70;;;;;;;;;;5091261;28;20383;-86
2022/10/23 03:46:08;;;;;;;9.75;2.60;;;;;;;;;;5090708;28;20016;-85
2022/10/23 03:48:37;;;;;;;4.90;1.58;;;;;;;;;;5090702;28;20024;-86
2022/10/23 03:51:03;;;;;;;2.67;2.00;;;;;;;;;;5091251;28;21663;-86
2022/10/23 03:53:29;;;;;;;2.25;1.83;;;;;;;;;;5092677;28;20154;-86
2022/10/23 03:55:54;;;;;;;2.95;1.20;;;;;;;;;;5123724;27;20162;-86
2022/10/23 03:58:20;;;;;;;4.35;1.73;;;;;;;;;;5091533;28;20031;-85
2022/10/23 04:00:45;;;;;;;1.73;0.85;;;;;;;;;;5089849;28;20035;-85
2022/10/23 04:03:10;;;;;;;2.97;1.73;;;;;;;;;;5091389;28;20035;-85
2022/10/23 04:05:36;;;;;;;3.30;1.83;;;;;;;;;;5092150;28;20038;-84
2022/10/23 04:08:02;;;;;;;2.78;1.65;;;;;;;;;;5089545;28;20046;-86
2022/10/23 04:10:27;;;;;;;1.63;1.42;;;;;;;;;;5091859;28;20085;-86
2022/10/23 04:12:53;;;;;;;4.25;2.33;;;;;;;;;;5090884;28;20020;-87
2022/10/23 04:15:18;;;;;;;2.05;1.27;;;;;;;;;;5091827;28;20468;-85
2022/10/23 04:17:44;;;;;;;3.78;1.98;;;;;;;;;;5087709;28;20053;-86
2022/10/23 04:20:09;;;;;;;1.58;1.40;;;;;;;;;;5090196;28;20039;-84
2022/10/23 04:22:34;;;;;;;2.55;1.38;;;;;;;;;;5090894;28;20522;-87
2022/10/23 04:25:01;;;;;;;1.42;1.20;;;;;;;;;;5092217;28;20023;-87
2022/10/23 04:27:26;;;;;;;2.42;1.45;;;;;;;;;;5090588;28;20369;-86
2022/10/23 04:29:52;;;;;;;4.10;2.67;;;;;;;;;;5090784;28;20027;-89
2022/10/23 04:32:17;;;;;;;1.58;1.13;;;;;;;;;;5092207;28;20027;-87
2022/10/23 04:34:43;;;;;;;2.30;1.90;;;;;;;;;;5090573;28;20073;-87
2022/10/23 04:37:08;;;;;;;1.27;0.95;;;;;;;;;;5092082;28;20106;-87
2022/10/23 04:39:33;;;;;;;2.78;1.20;;;;;;;;;;5090158;28;20396;-86
2022/10/23 04:41:59;;;;;;;1.00;0.90;;;;;;;;;;5092037;28;20024;-86
2022/10/23 04:44:24;;;;;;;1.13;0.98;;;;;;;;;;5089447;28;20108;-87
2022/10/23 04:46:50;;;;;;;2.65;1.60;;;;;;;;;;5087949;28;20464;-84
2022/10/23 04:49:15;;;;;;;2.03;1.38;;;;;;;;;;5091884;28;20020;-85
2022/10/23 04:51:40;;;;;;;2.05;1.42;;;;;;;;;;5089771;28;20051;-87
2022/10/23 04:54:06;;;;;;;1.75;1.30;;;;;;;;;;5090462;28;20047;-87
2022/10/23 04:56:31;;;;;;;2.80;1.63;;;;;;;;;;5091805;28;20031;-86
2022/10/23 04:58:57;;;;;;;2.42;1.70;;;;;;;;;;5088373;28;20057;-85
2022/10/23 05:01:22;;;;;;;3.28;1.35;;;;;;;;;;5090639;28;20048;-85
2022/10/23 05:03:47;;;;;;;1.45;1.15;;;;;;;;;;5091704;28;20531;-87
2022/10/23 05:06:13;;;;;;;2.97;1.17;;;;;;;;;;5090540;28;20069;-87
2022/10/23 05:08:38;;;;;;;2.67;1.52;;;;;;;;;;5091909;28;20032;-85
2022/10/23 05:11:04;;;;;;;1.67;0.80;;;;;;;;;;5089665;28;20058;-84
2022/10/23 05:13:29;;;;;;;1.55;1.20;;;;;;;;;;5091661;28;20425;-85
2022/10/23 05:15:57;;;;;;;2.85;1.63;;;;;;;;;;5090695;28;20028;-87
2022/10/23 05:18:34;;;;;;;2.40;1.77;;;;;;;;;;5088457;28;20077;-87
2022/10/23 05:21:10;;;;;;;2.28;1.38;;;;;;;;;;5088898;28;20031;-86
2022/10/23 05:23:37;;;;;;;3.20;1.60;;;;;;;;;;5089521;28;20031;-86
2022/10/23 05:26:04;;;;;;;3.35;1.80;;;;;;;;;;5090414;28;20051;-86
2022/10/23 05:28:30;;;;;;;2.90;1.48;;;;;;;;;;5088181;28;20060;-86
2022/10/23 05:30:58;;;;;;;3.08;1.60;;;;;;;;;;5091793;28;20024;-87
2022/10/23 05:33:24;;;;;;;0.98;0.88;;;;;;;;;;5088755;28;20024;-86
2022/10/23 05:35:50;;;;;;;1.45;1.27;;;;;;;;;;5091176;28;20505;-85
2022/10/23 05:38:15;;;;;;;2.42;1.48;;;;;;;;;;5095405;28;20491;-87
2022/10/23 05:40:41;;;;;;;1.90;1.15;;;;;;;;;;5093122;28;20361;-87
2022/10/23 05:43:06;;;;;;;1.85;1.27;;;;;;;;;;5092925;28;20024;-86
2022/10/23 05:45:31;;;;;;;1.73;1.27;;;;;;;;;;5092507;28;20031;-87
2022/10/23 05:47:57;;;;;;;3.42;1.92;;;;;;;;;;5097037;28;20055;-86
2022/10/23 05:50:22;;;;;;;2.22;1.40;;;;;;;;;;5095092;28;20024;-88
2022/10/23 05:52:48;;;;;;;6.30;2.60;;;;;;;;;;5093646;28;20089;-86
2022/10/23 05:55:15;;;;;;;3.33;1.23;;;;;;;;;;5095016;28;20025;-87
2022/10/23 05:57:40;;;;;;;3.40;1.25;;;;;;;;;;5093917;28;20024;-84
2022/10/23 06:00:07;;;;;;;4.57;1.35;;;;;;;;;;5090463;28;20468;-86
2022/10/23 06:02:32;;;;;;;1.73;1.13;;;;;;;;;;5093321;28;20023;-85
2022/10/23 06:04:58;;;;;;;2.47;1.40;;;;;;;;;;5094713;28;20024;-86
2022/10/23 06:07:24;;;;;;;3.45;1.60;;;;;;;;;;5091965;28;20020;-86
2022/10/23 06:09:50;;;;;;;1.60;0.88;;;;;;;;;;5092790;28;20039;-84
2022/10/23 06:12:15;;;;;;;2.03;1.08;;;;;;;;;;5094555;28;20028;-83
2022/10/23 06:14:41;;;;;;;3.88;1.88;;;;;;;;;;5093325;28;20036;-84
2022/10/23 06:17:06;;;;;;;2.03;1.10;;;;;;;;;;5093203;28;20206;-85
2022/10/23 06:19:32;;;;;;;2.60;1.30;;;;;;;;;;5090603;28;20409;-85
2022/10/23 06:21:57;;;;;;;5.05;1.52;;;;;;;;;;5092972;28;20073;-85
2022/10/23 06:24:22;;;;;;;4.18;1.38;;;;;;;;;;5090846;28;20027;-85
2022/10/23 06:26:48;;;;;;;2.38;1.52;;;;;;;;;;5091625;28;20647;-85
2022/10/23 06:29:13;;;;;;;2.72;1.92;;;;;;;;;;5091974;28;20027;-86
2022/10/23 06:31:39;;;;;;;3.83;2.38;;;;;;;;;;5090666;28;20032;-84
2022/10/23 06:34:05;;;;;;;2.03;1.23;;;;;;;;;;5090784;28;20048;-85
2022/10/23 06:36:32;;;;;;;1.65;1.20;;;;;;;;;;5094890;28;20028;-89
2022/10/23 06:38:57;;;;;;;1.92;0.98;;;;;;;;;;5091060;28;20028;-86
2022/10/23 06:41:23;;;;;;;2.80;1.20;;;;;;;;;;5092560;28;20521;-85
2022/10/23 06:43:50;;;;;;;1.23;0.95;;;;;;;;;;5093146;28;20040;-85
2022/10/23 06:46:17;;;;;;;1.67;1.17;;;;;;;;;;5091409;28;20048;-85
2022/10/23 06:48:43;;;;;;;2.15;1.45;;;;;;;;;;5090068;28;20055;-85
2022/10/23 06:51:11;;;;;;;2.17;1.35;;;;;;;;;;5091845;28;20059;-85
2022/10/23 06:53:37;;;;;;;2.80;1.23;;;;;;;;;;5091911;28;20020;-86
2022/10/23 06:56:04;;;;;;;1.67;1.30;;;;;;;;;;5092937;28;20028;-85
2022/10/23 06:58:30;;;;;;;2.03;0.93;;;;;;;;;;5095539;28;20016;-85
2022/10/23 07:00:59;;;;;;;1.48;1.35;;;;;;;;;;5092190;28;20024;-87
2022/10/23 07:04:02;;;;;;;1.20;0.83;;;;;;;;;;5090578;28;20129;-84
2022/10/23 07:06:39;;;;;;;1.25;1.05;;;;;;;;;;5075952;28;20024;-86
2022/10/23 07:09:16;;;;;;;0.65;0.60;;;;;;;;;;5092972;28;20028;-84
2022/10/23 07:11:52;;;;;;;1.70;1.00;;;;;;;;;;5078768;28;20468;-84
2022/10/23 07:14:31;;;;;;;1.35;0.93;;;;;;;;;;5092659;28;20034;-83
2022/10/23 07:16:57;;;;;;;0.55;0.50;;;;;;;;;;5093958;28;20520;-84
2022/10/23 07:19:23;;;;;;;0.80;0.52;;;;;;;;;;5091629;28;20092;-83
2022/10/23 07:21:49;;;;;;;1.80;0.82;;;;;;;;;;5093127;28;20056;-86
2022/10/23 07:24:15;;;;;;;1.23;0.88;;;;;;;;;;5090434;28;20035;-84
2022/10/23 07:26:46;;;;;;;1.58;0.57;;;;;;;;;;5093291;28;20103;-83
2022/10/23 07:29:12;;;;;;;0.65;0.52;;;;;;;;;;5092925;28;20046;-83
2022/10/23 07:31:37;;;;;;;1.10;0.80;;;;;;;;;;5093267;28;20376;-85
2022/10/23 07:34:05;;;;;;;0.75;0.40;;;;;;;;;;5092443;28;20024;-85
2022/10/23 07:36:31;;;;;;;1.27;1.17;;;;;;;;;;5091325;28;20035;-85
2022/10/23 07:38:57;;;;;;;0.75;0.70;;;;;;;;;;5094620;28;20502;-88
2022/10/23 07:41:22;;;;;;;0.70;0.63;;;;;;;;;;5092422;28;20024;-83
2022/10/23 07:43:48;;;;;;;0.82;0.82;;;;;;;;;;5089871;28;20112;-84
2022/10/23 07:46:13;;;;;;;0.77;0.77;;;;;;;;;;5091538;28;20088;-83
2022/10/23 07:48:39;;;;;;;1.40;0.70;;;;;;;;;;5091088;28;20560;-83
2022/10/23 07:51:12;;;;;;;1.08;0.60;;;;;;;;;;5091260;28;20072;-86
2022/10/23 07:53:38;;;;;;;1.42;0.88;;;;;;;;;;5092278;28;20097;-85
2022/10/23 07:56:11;;;;;;;1.05;0.60;;;;;;;;;;5090769;28;20032;-85
2022/10/23 07:58:36;;;;;;;2.00;0.70;;;;;;;;;;5090620;28;20062;-83
2022/10/23 08:01:09;;;;;;;2.03;0.73;;;;;;;;;;5090733;28;20484;-85
2022/10/23 08:03:35;;;;;;;1.05;0.77;;;;;;;;;;5091386;28;20024;-84
2022/10/23 08:06:00;;;;;;;0.95;0.68;;;;;;;;;;5093337;28;20046;-87
2022/10/23 08:08:26;;;;;;;3.58;0.68;;;;;;;;;;5092223;28;20035;-85
2022/10/23 08:10:53;;;;;;;0.85;0.80;;;;;;;;;;5092305;28;20024;-85
2022/10/23 08:13:20;;;;;;;1.42;0.85;;;;;;;;;;5092442;28;20024;-84
2022/10/23 08:15:47;;;;;;;1.65;0.75;;;;;;;;;;5092815;28;20031;-86
2022/10/23 08:18:13;;;;;;;3.50;0.60;;;;;;;;;;5090374;28;20032;-84
2022/10/23 08:20:43;;;;;;;1.45;0.90;;;;;;;;;;5088392;28;20076;-84
2022/10/23 08:23:11;;;;;;;1.15;0.90;;;;;;;;;;5087690;28;20512;-85
2022/10/23 08:25:37;;;;;;;1.58;1.08;;;;;;;;;;5089460;28;20103;-84
2022/10/23 08:28:04;;;;;;;2.72;1.30;;;;;;;;;;5087523;28;20024;-82
2022/10/23 08:30:29;;;;;;;2.80;1.15;;;;;;;;;;5090554;28;20036;-82
2022/10/23 08:32:54;;;;;;;1.13;0.85;;;;;;;;;;5086176;28;20487;-84
2022/10/23 08:35:20;;;;;;;2.40;1.30;;;;;;;;;;5086571;28;20032;-84
2022/10/23 08:37:45;;;;;;;0.98;0.70;;;;;;;;;;5091072;28;20027;-84
2022/10/23 08:40:22;;;;;;;1.50;0.60;;;;;;;;;;5088468;28;20032;-86
2022/10/23 08:43:04;;;;;;;1.65;0.93;;;;;;;;;;5088054;28;20028;-84
2022/10/23 08:45:35;;;;;;;0.98;0.75;;;;;;;;;;5090499;28;20020;-84
2022/10/23 08:48:32;;;;;;;0.75;0.68;;;;;;;;;;5087854;28;20058;-87
2022/10/23 08:51:20;;;;;;;0.95;0.60;;;;;;;;;;5087412;28;20526;-85
2022/10/23 08:53:51;;;;;;;2.03;0.98;;;;;;;;;;5090142;28;20023;-82
2022/10/23 08:56:23;;;;;;;2.15;0.80;;;;;;;;;;5090194;28;20024;-87
2022/10/23 08:59:00;;;;;;;1.50;0.95;;;;;;;;;;5089828;28;20032;-86
2022/10/23 09:01:28;;;;;;;0.73;0.73;;;;;;;;;;5085725;28;20021;-85
2022/10/23 09:03:54;;;;;;;1.70;1.05;;;;;;;;;;5088549;28;20032;-86
2022/10/23 09:06:46;;;;;;;1.15;0.38;;;;;;;;;;5090467;28;20020;-87
2022/10/23 09:09:37;;;;;;;1.55;0.70;;;;;;;;;;5089252;28;20500;-83
2022/10/23 09:12:20;;;;;;;0.40;0.30;;;;;;;;;;5091343;28;20116;-84
2022/10/23 09:14:48;;;;;;;1.27;0.65;;;;;;;;;;5094688;28;20058;-84
2022/10/23 09:17:29;;;;;;;1.25;0.52;;;;;;;;;;5093859;28;20450;-86
2022/10/23 09:20:04;;;;;;;2.20;1.02;;;;;;;;;;5093485;28;20031;-86
2022/10/23 09:22:29;;;;;;;1.08;0.52;;;;;;;;;;5092186;28;20074;-86
2022/10/23 09:24:55;;;;;;;0.82;0.68;;;;;;;;;;5094338;28;20056;-86
2022/10/23 09:27:20;;;;;;;1.27;0.80;;;;;;;;;;5095242;28;20046;-87
2022/10/23 09:29:53;;;;;;;3.85;1.05;;;;;;;;;;5093823;28;20028;-84
2022/10/23 09:32:30;;;;;;;2.00;0.82;;;;;;;;;;5093143;28;20439;-84
2022/10/23 09:34:56;;;;;;;1.17;0.90;;;;;;;;;;5092815;28;20039;-86
2022/10/23 09:37:30;;;;;;;1.67;1.10;;;;;;;;;;5092764;28;20028;-85
2022/10/23 09:40:14;;;;;;;1.38;1.10;;;;;;;;;;5094261;28;20529;-87
2022/10/23 09:43:09;;;;;;;1.05;0.57;;;;;;;;;;5091540;28;20031;-87
2022/10/23 09:45:34;;;;;;;1.52;1.02;;;;;;;;;;5078915;28;20040;-87
2022/10/23 09:48:14;;;;;;;2.28;1.00;;;;;;;;;;5095614;28;20028;-88
2022/10/23 09:50:50;;;;;;;;;;;;;;;;;;5094355;28;20023;-87
2022/10/23 09:53:28;;;;;;;0.93;0.75;;;;;;;;;;5092074;28;19912;-85
2022/10/23 09:55:56;;;;;;;1.10;1.02;;;;;;;;;;5095185;28;20539;-87
2022/10/23 09:58:37;;;;;;;1.67;0.77;;;;;;;;;;5092427;28;20051;-88
2022/10/23 10:01:03;;;;;;;1.17;0.52;;;;;;;;;;5089993;28;20115;-85
2022/10/23 10:03:28;;;;;;;1.98;1.02;;;;;;;;;;5092650;28;20051;-86
2022/10/23 10:06:03;;;;;;;1.48;0.82;;;;;;;;;;5092523;28;20027;-88
2022/10/23 10:08:43;;;;;;;2.00;0.95;;;;;;;;;;5093110;28;20024;-89
2022/10/23 10:11:26;;;;;;;2.63;0.73;;;;;;;;;;5094875;28;20127;-88
2022/10/23 10:14:22;;;;;;;1.58;1.05;;;;;;;;;;5092797;28;20060;-86
2022/10/23 10:17:01;;;;;;;0.65;0.57;;;;;;;;;;5092275;28;20543;-87
2022/10/23 10:19:57;;;;;;;1.80;1.05;;;;;;;;;;5089929;28;20028;-84
2022/10/23 10:22:57;;;;;;;1.10;0.65;;;;;;;;;;5090167;28;20040;-85
2022/10/23 10:25:41;;;;;;;1.25;1.00;;;;;;;;;;5070735;28;20031;-88
2022/10/23 10:28:16;;;;;;;1.08;0.60;;;;;;;;;;5091068;28;20111;-88
2022/10/23 10:30:59;;;;;;;1.55;0.57;;;;;;;;;;5090309;28;20388;-85
2022/10/23 10:33:31;;;;;;;0.93;0.77;;;;;;;;;;5092865;28;20016;-85
2022/10/23 10:36:11;;;;;;;0.85;0.70;;;;;;;;;;5091170;28;20506;-87
2022/10/23 10:38:49;;;;;;;2.92;0.98;;;;;;;;;;5094375;28;20035;-85
2022/10/23 10:41:34;;;;;;;6.80;0.75;;;;;;;;;;5088079;28;20491;-85
2022/10/23 10:44:27;;;;;;;0.50;0.50;;;;;;;;;;5089313;28;20058;-88
2022/10/23 10:47:08;;;;;;;0.90;0.75;;;;;;;;;;5089022;28;20484;-85
2022/10/23 10:49:52;;;;;;;1.55;0.65;;;;;;;;;;5089324;28;20495;-85
2022/10/23 10:52:56;;;;;;;1.02;0.68;;;;;;;;;;5090047;28;20038;-83
2022/10/23 10:55:36;;;;;;;0.85;0.70;;;;;;;;;;5091472;28;20042;-86
2022/10/23 10:58:12;;;;;;;0.43;0.43;;;;;;;;;;5090955;28;20024;-83
2022/10/23 11:00:38;;;;;;;0.82;0.50;;;;;;;;;;5092751;28;20472;-85
2022/10/23 11:03:35;;;;;;;1.02;0.70;;;;;;;;;;5093284;28;20024;-86
2022/10/23 11:06:03;;;;;;;0.40;0.40;;;;;;;;;;5087111;28;20033;-87
2022/10/23 11:08:31;;;;;;;0.73;0.50;;;;;;;;;;5088322;28;20058;-86
2022/10/23 11:11:02;;;;;;;2.10;1.20;;;;;;;;;;5091239;28;20024;-85
2022/10/23 11:13:33;;;;;;;1.33;0.98;;;;;;;;;;5090755;28;20068;-86
2022/10/23 11:16:24;;;;;;;0.68;0.50;;;;;;;;;;5092310;28;20028;-82
2022/10/23 11:19:03;;;;;;;2.40;1.35;;;;;;;;;;5090241;28;20498;-85
2022/10/23 11:21:55;;;;;;;3.03;0.80;;;;;;;;;;5090330;28;20038;-86
2022/10/23 11:24:42;;;;;;;0.73;0.50;;;;;;;;;;5060485;28;20300;-87
2022/10/23 11:27:46;;;;;;;0.98;0.75;;;;;;;;;;5090698;28;20103;-86
2022/10/23 11:30:22;;;;;;;1.08;0.80;;;;;;;;;;5051202;28;20040;-88
2022/10/23 11:33:08;;;;;;;1.85;1.17;;;;;;;;;;5083284;28;20043;-87
2022/10/23 11:35:55;;;;;;;1.13;0.75;;;;;;;;;;5090216;28;20027;-88
2022/10/23 11:38:28;;;;;;;1.25;0.63;;;;;;;;;;5089547;28;20038;-85
2022/10/23 11:40:58;;;;;;;5.75;1.38;;;;;;;;;;5092484;28;20024;-88
2022/10/23 11:43:32;;;;;;;1.13;0.70;;;;;;;;;;5088166;28;20391;-88
2022/10/23 11:46:09;;;;;;;1.17;0.73;;;;;;;;;;5091901;28;20102;-85
2022/10/23 11:48:40;;;;;;;1.58;1.42;;;;;;;;;;5092326;28;20042;-85
2022/10/23 11:51:24;;;;;;;1.02;0.55;;;;;;;;;;5092004;28;20499;-86
2022/10/23 11:53:49;;;;;;;1.70;1.52;;;;;;;;;;5089362;28;20029;-88
2022/10/23 11:56:15;;;;;;;1.75;1.08;;;;;;;;;;5090829;28;20032;-85
2022/10/23 11:58:42;;;;;;;1.08;0.52;;;;;;;;;;5089153;28;20043;-84
2022/10/23 12:01:38;;;;;;;0.77;0.77;;;;;;;;;;5087102;28;20486;-86
2022/10/23 12:04:13;;;;;;;2.47;0.85;;;;;;;;;;5089560;28;20052;-84
2022/10/23 12:06:47;;;;;;;1.00;0.70;;;;;;;;;;5085270;28;20053;-86
2022/10/23 12:09:39;;;;;;;0.65;0.65;;;;;;;;;;5088815;28;20028;-87
2022/10/23 12:12:07;;;;;;;0.80;0.70;;;;;;;;;;5090251;28;20016;-87
2022/10/23 12:14:50;;;;;;;1.02;0.63;;;;;;;;;;5092297;28;20103;-86
2022/10/23 12:17:21;;;;;;;1.52;0.82;;;;;;;;;;5087075;28;20024;-85
2022/10/23 12:19:48;;;;;;;2.05;1.20;;;;;;;;;;5086367;28;20028;-88
2022/10/23 12:22:14;;;;;;;1.42;0.80;;;;;;;;;;5091920;28;20123;-85
2022/10/23 12:25:03;;;;;;;1.70;0.90;;;;;;;;;;5088870;28;20063;-86
2022/10/23 12:27:43;;;;;;;0.95;0.70;;;;;;;;;;5088050;28;20066;-86
2022/10/23 12:30:19;;;;;;;1.35;0.90;;;;;;;;;;5087439;28;20023;-84
2022/10/23 12:33:00;;;;;;;0.80;0.52;;;;;;;;;;5090972;28;20181;-84
2022/10/23 12:36:16;;;;;;;0.93;0.63;;;;;;;;;;5082645;28;20073;-84
2022/10/23 12:38:46;;;;;;;2.15;1.00;;;;;;;;;;5029636;28;20045;-85
2022/10/23 12:41:15;;;;;;;1.13;0.90;;;;;;;;;;5085877;28;20091;-85
2022/10/23 12:43:44;;;;;;;1.83;0.90;;;;;;;;;;5089856;28;20035;-87
2022/10/23 12:47:00;;;;;;;1.13;0.77;;;;;;;;;;5088367;28;20033;-87
2022/10/23 12:49:30;;;;;;;1.05;0.77;;;;;;;;;;5076550;28;20036;-85
2022/10/23 12:51:56;;;;;;;2.10;0.70;;;;;;;;;;5085857;28;20093;-85
2022/10/23 12:54:22;;;;;;;1.45;0.93;;;;;;;;;;5082083;28;20103;-83
2022/10/23 12:56:48;;;;;;;0.80;0.60;;;;;;;;;;5089374;28;20103;-86
2022/10/23 12:59:17;;;;;;;0.70;0.60;;;;;;;;;;5080120;28;20031;-87
2022/10/23 13:01:43;;;;;;;0.52;0.52;;;;;;;;;;5083775;28;20040;-85
2022/10/23 13:04:23;;;;;;;0.77;0.70;;;;;;;;;;5089999;28;20093;-86
2022/10/23 13:06:50;;;;;;;0.70;0.70;;;;;;;;;;5084772;28;20035;-86
2022/10/23 13:09:39;;;;;;;4.68;0.65;;;;;;;;;;5089262;28;20506;-88
2022/10/23 13:12:06;;;;;;;0.65;0.55;;;;;;;;;;5085510;28;20032;-86
2022/10/23 13:14:36;;;;;;;4.95;0.88;;;;;;;;;;5082304;28;20520;-87
2022/10/23 13:17:04;;;;;;;1.40;0.63;;;;;;;;;;5084511;28;20032;-86
2022/10/23 13:19:30;;;;;;;1.27;0.68;;;;;;;;;;5083898;28;20024;-86
2022/10/23 13:21:56;;;;;;;1.02;0.70;;;;;;;;;;5090900;28;20048;-88
2022/10/23 13:24:24;;;;;;;0.80;0.70;;;;;;;;;;5090309;28;20031;-87
2022/10/23 13:26:50;;;;;;;0.65;0.60;;;;;;;;;;5090406;28;20460;-89
2022/10/23 13:29:32;;;;;;;2.25;0.75;;;;;;;;;;5088267;28;20031;-86
2022/10/23 13:32:09;;;;;;;1.23;0.70;;;;;;;;;;5084397;28;20033;-85
2022/10/23 13:34:34;;;;;;;6.00;1.00;;;;;;;;;;5079965;28;20032;-87
2022/10/23 13:37:24;;;;;;;1.02;0.70;;;;;;;;;;5088416;28;20089;-84
2022/10/23 13:39:59;;;;;;;1.40;0.77;;;;;;;;;;5077237;28;20055;-87
2022/10/23 13:42:25;;;;;;;5.03;1.10;;;;;;;;;;5088793;28;20395;-88
2022/10/23 13:44:50;;;;;;;1.92;0.93;;;;;;;;;;5089486;28;20039;-87
2022/10/23 13:47:16;;;;;;;0.55;0.50;;;;;;;;;;5089396;28;20032;-89
2022/10/23 13:49:42;;;;;;;0.68;0.63;;;;;;;;;;5085775;28;20038;-87
2022/10/23 13:52:11;;;;;;;1.30;0.80;;;;;;;;;;5085536;28;20028;-86
2022/10/23 13:54:37;;;;;;;1.00;0.70;;;;;;;;;;5090495;28;20455;-90
2022/10/23 13:57:02;;;;;;;2.10;1.02;;;;;;;;;;5090297;28;20068;-86
2022/10/23 13:59:28;;;;;;;2.85;0.90;;;;;;;;;;5092661;28;20047;-87
2022/10/23 14:01:53;;;;;;;1.17;0.80;;;;;;;;;;5093474;28;20460;-84
2022/10/23 14:04:18;;;;;;;1.40;0.80;;;;;;;;;;5091661;28;20054;-87
2022/10/23 14:06:44;;;;;;;1.17;0.70;;;;;;;;;;5094161;28;20028;-86
2022/10/23 14:09:15;;;;;;;1.27;1.00;;;;;;;;;;5092977;28;20036;-86
2022/10/23 14:11:40;;;;;;;1.38;0.80;;;;;;;;;;5087136;28;20368;-87
2022/10/23 14:14:06;;;;;;;1.35;0.80;;;;;;;;;;5092497;28;20028;-86
2022/10/23 14:16:32;;;;;;;0.95;0.77;;;;;;;;;;5094002;28;20028;-86
2022/10/23 14:18:57;;;;;;;1.17;0.60;;;;;;;;;;5092849;28;20024;-87
2022/10/23 14:21:24;;;;;;;0.70;0.70;;;;;;;;;;5092305;28;20495;-86
2022/10/23 14:23:50;;;;;;;0.82;0.68;;;;;;;;;;5091526;28;20028;-87
2022/10/23 14:26:19;;;;;;;1.70;0.80;;;;;;;;;;5088363;28;20460;-84
2022/10/23 14:28:44;;;;;;;1.25;0.80;;;;;;;;;;5091893;28;20027;-85
2022/10/23 14:31:13;;;;;;;2.60;1.50;;;;;;;;;;5090732;28;20043;-85
2022/10/23 14:33:39;;;;;;;2.75;0.82;;;;;;;;;;5091667;28;20036;-85
2022/10/23 14:36:06;;;;;;;1.20;0.65;;;;;;;;;;5088267;28;20024;-85
2022/10/23 14:38:32;;;;;;;1.00;0.77;;;;;;;;;;5091670;28;20032;-85
2022/10/23 14:40:57;;;;;;;1.90;1.00;;;;;;;;;;5087763;28;20493;-86
2022/10/23 14:43:23;;;;;;;1.50;0.80;;;;;;;;;;5090136;28;20035;-85
2022/10/23 14:45:48;;;;;;;1.75;0.70;;;;;;;;;;5091940;28;20043;-87
2022/10/23 14:48:14;;;;;;;1.30;0.82;;;;;;;;;;5093135;28;20074;-86
2022/10/23 14:50:48;;;;;;;1.55;1.02;;;;;;;;;;5092051;28;20036;-86
2022/10/23 14:53:14;;;;;;;1.75;0.95;;;;;;;;;;5087959;28;20360;-86
2022/10/23 14:55:39;;;;;;;1.10;0.68;;;;;;;;;;5090746;28;20118;-85
2022/10/23 14:58:05;;;;;;;0.80;0.65;;;;;;;;;;5092780;28;20112;-87
2022/10/23 15:00:31;;;;;;;1.40;0.60;;;;;;;;;;5092712;28;20024;-86
2022/10/23 15:02:56;;;;;;;1.38;0.77;;;;;;;;;;5092203;28;20024;-87
2022/10/23 15:05:22;;;;;;;1.20;0.80;;;;;;;;;;5093613;28;20074;-86